Time;durP1;ratioP1;P1;durP2;ratioP2;P2;SDS_P1;SDS_P2;PMS_P1;PMS_P2;Temp;Humidity;BMP_temperature;BMP_pressure;BME280_temperature;BME280_humidity;BME280_pressure;Samples;Min_cycle;Max_cycle;Signal;HPM_P1;HPM_P2
2024/04/04 00:00:59;;;;;;;4.57;3.07;;;10.60;99.90;;;;;;5032784;28;20876;-60
2024/04/04 00:03:25;;;;;;;7.30;2.53;;;10.60;99.90;;;;;;5032734;28;20441;-60
2024/04/04 00:05:50;;;;;;;3.90;2.57;;;10.60;99.90;;;;;;5032591;28;20598;-60
2024/04/04 00:08:16;;;;;;;4.03;2.00;;;10.60;99.90;;;;;;5032386;28;20446;-62
2024/04/04 00:10:42;;;;;;;4.80;2.13;;;10.60;99.90;;;;;;5032291;28;20233;-61
2024/04/04 00:13:08;;;;;;;4.63;1.97;;;10.60;99.90;;;;;;5032484;28;20446;-62
2024/04/04 00:15:40;;;;;;;2.60;1.87;;;10.70;99.90;;;;;;5032220;28;20337;-62
2024/04/04 00:18:06;;;;;;;3.90;2.60;;;10.70;99.90;;;;;;5032246;28;20191;-62
2024/04/04 00:20:36;;;;;;;2.63;2.37;;;10.70;99.90;;;;;;5032035;28;20570;-62
2024/04/04 00:23:02;;;;;;;2.10;1.90;;;10.70;99.90;;;;;;5032090;28;20651;-60
2024/04/04 00:25:28;;;;;;;3.33;2.10;;;10.60;99.90;;;;;;5032191;28;20454;-60
2024/04/04 00:27:53;;;;;;;2.13;1.90;;;10.60;99.90;;;;;;5031658;28;20175;-61
2024/04/04 00:30:19;;;;;;;2.47;1.93;;;10.60;99.90;;;;;;5031919;28;20248;-60
2024/04/04 00:32:45;;;;;;;2.20;2.00;;;10.70;99.90;;;;;;5031573;28;20314;-60
2024/04/04 00:35:10;;;;;;;3.87;2.30;;;10.60;99.90;;;;;;5032415;28;20673;-60
2024/04/04 00:37:36;;;;;;;2.60;2.40;;;10.70;99.90;;;;;;5032067;28;20427;-60
2024/04/04 00:40:03;;;;;;;2.43;2.23;;;10.70;99.90;;;;;;5032654;28;20183;-61
2024/04/04 00:42:29;;;;;;;2.60;2.40;;;10.70;99.90;;;;;;5032069;28;20753;-60
2024/04/04 00:44:54;;;;;;;2.20;2.00;;;10.70;99.90;;;;;;5031904;28;20429;-59
2024/04/04 00:47:20;;;;;;;2.60;1.80;;;10.70;99.90;;;;;;5031946;28;20191;-62
2024/04/04 00:49:46;;;;;;;1.83;1.73;;;10.70;99.90;;;;;;5031785;28;20236;-60
2024/04/04 00:52:12;;;;;;;2.40;2.20;;;10.60;99.90;;;;;;5031672;28;20215;-62
2024/04/04 00:54:41;;;;;;;1.87;1.77;;;10.70;99.90;;;;;;5031500;28;20442;-62
2024/04/04 00:57:08;;;;;;;2.30;1.83;;;10.70;99.90;;;;;;5031234;28;20270;-58
2024/04/04 00:59:33;;;;;;;2.60;1.47;;;10.70;99.90;;;;;;5031839;28;20450;-60
2024/04/04 01:01:59;;;;;;;1.70;1.60;;;10.70;99.90;;;;;;5031564;28;20510;-60
2024/04/04 01:04:25;;;;;;;1.90;1.80;;;10.70;99.90;;;;;;5031748;28;20484;-61
2024/04/04 01:06:50;;;;;;;2.17;1.97;;;10.70;99.90;;;;;;5031221;28;20426;-61
2024/04/04 01:09:16;;;;;;;2.70;1.90;;;10.70;99.90;;;;;;5031801;28;20205;-60
2024/04/04 01:11:42;;;;;;;3.97;2.30;;;10.70;99.90;;;;;;5031509;28;20242;-59
2024/04/04 01:14:08;;;;;;;2.70;2.07;;;10.70;99.90;;;;;;5031649;28;20203;-60
2024/04/04 01:16:34;;;;;;;3.03;1.90;;;10.70;99.90;;;;;;5031091;28;20905;-59
2024/04/04 01:19:00;;;;;;;1.63;1.53;;;10.60;99.90;;;;;;5031258;28;20429;-61
2024/04/04 01:21:25;;;;;;;2.63;1.90;;;10.60;99.90;;;;;;5031474;28;20265;-63
2024/04/04 01:23:51;;;;;;;1.70;1.60;;;10.50;99.90;;;;;;5031023;28;20704;-59
2024/04/04 01:26:17;;;;;;;3.27;2.47;;;10.40;99.90;;;;;;5031526;28;20275;-60
2024/04/04 01:28:44;;;;;;;2.20;2.00;;;10.40;99.90;;;;;;5031026;28;20179;-60
2024/04/04 01:31:10;;;;;;;4.30;2.03;;;10.40;99.90;;;;;;5031058;28;20677;-60
2024/04/04 01:33:36;;;;;;;2.70;1.93;;;10.40;99.90;;;;;;5031134;28;20442;-61
2024/04/04 01:36:02;;;;;;;2.33;1.63;;;10.40;99.90;;;;;;5031152;28;21118;-61
2024/04/04 01:38:27;;;;;;;2.20;1.80;;;10.40;99.90;;;;;;5031172;28;20202;-61
2024/04/04 01:40:54;;;;;;;2.70;1.73;;;10.30;99.90;;;;;;5030747;28;20328;-56
2024/04/04 01:43:19;;;;;;;2.00;1.57;;;10.30;99.90;;;;;;5030783;28;20297;-61
2024/04/04 01:45:45;;;;;;;3.33;2.07;;;10.30;99.90;;;;;;5028898;28;20465;-61
2024/04/04 01:48:10;;;;;;;3.03;2.20;;;10.30;99.90;;;;;;5030524;28;20487;-61
2024/04/04 01:50:37;;;;;;;2.90;2.00;;;10.30;99.90;;;;;;5030789;28;20188;-61
2024/04/04 01:53:03;;;;;;;2.90;1.90;;;10.30;99.90;;;;;;5030500;28;20226;-58
2024/04/04 01:55:29;;;;;;;3.60;1.90;;;10.40;99.90;;;;;;5030680;28;20944;-59
2024/04/04 01:57:57;;;;;;;2.67;2.47;;;10.30;99.90;;;;;;5030240;28;20266;-61
2024/04/04 02:00:22;;;;;;;2.27;2.17;;;10.30;99.90;;;;;;5030434;28;20429;-61
2024/04/04 02:02:48;;;;;;;2.47;2.27;;;10.40;99.90;;;;;;5030071;28;20524;-62
2024/04/04 02:05:14;;;;;;;1.60;1.50;;;10.40;99.90;;;;;;5030357;28;20186;-61
2024/04/04 02:07:39;;;;;;;1.93;1.83;;;10.40;99.90;;;;;;5029835;28;20179;-61
2024/04/04 02:10:05;;;;;;;2.33;1.67;;;10.40;99.90;;;;;;5030021;28;20262;-60
2024/04/04 02:12:31;;;;;;;2.10;1.90;;;10.40;99.90;;;;;;5029930;28;20286;-60
2024/04/04 02:14:57;;;;;;;2.70;2.50;;;10.30;99.90;;;;;;5029720;28;20202;-60
2024/04/04 02:17:23;;;;;;;2.20;2.00;;;10.40;99.90;;;;;;5029571;28;20422;-61
2024/04/04 02:19:49;;;;;;;2.80;2.60;;;10.40;99.90;;;;;;5029450;28;20203;-61
2024/04/04 02:22:15;;;;;;;2.70;2.50;;;10.40;99.90;;;;;;5029853;28;20472;-61
2024/04/04 02:24:42;;;;;;;2.47;2.20;;;10.40;99.90;;;;;;5030220;28;21056;-60
2024/04/04 02:27:08;;;;;;;2.10;2.00;;;10.40;99.90;;;;;;5030070;28;20418;-60
2024/04/04 02:29:34;;;;;;;1.90;1.80;;;10.40;99.90;;;;;;5030365;28;20509;-60
2024/04/04 02:32:00;;;;;;;2.60;2.40;;;10.40;99.90;;;;;;5030027;28;20422;-61
2024/04/04 02:34:26;;;;;;;2.50;2.30;;;10.40;99.90;;;;;;5030264;28;20468;-60
2024/04/04 02:36:51;;;;;;;3.37;3.10;;;10.40;99.90;;;;;;5029732;28;20258;-59
2024/04/04 02:39:17;;;;;;;2.73;2.47;;;10.40;99.90;;;;;;5029585;28;20429;-62
2024/04/04 02:41:43;;;;;;;2.57;2.37;;;10.40;99.90;;;;;;5029437;28;20207;-62
2024/04/04 02:44:09;;;;;;;2.97;2.73;;;10.40;99.90;;;;;;5029911;28;20191;-62
2024/04/04 02:46:35;;;;;;;2.80;2.60;;;10.40;99.90;;;;;;5029695;28;20480;-62
2024/04/04 02:49:01;;;;;;;3.00;2.67;;;10.40;99.90;;;;;;5029376;28;20414;-61
2024/04/04 02:51:28;;;;;;;3.37;2.60;;;10.40;99.90;;;;;;5029784;28;20520;-62
2024/04/04 02:53:53;;;;;;;2.77;2.57;;;10.40;99.90;;;;;;5029710;28;20449;-62
2024/04/04 02:56:19;;;;;;;3.27;3.07;;;10.40;99.90;;;;;;5029510;28;20492;-62
2024/04/04 02:58:45;;;;;;;3.27;3.00;;;10.40;99.90;;;;;;5029226;28;20646;-62
2024/04/04 03:01:11;;;;;;;3.07;2.83;;;10.40;99.90;;;;;;5029520;28;20939;-66
2024/04/04 03:03:36;;;;;;;3.00;2.60;;;10.40;99.90;;;;;;5029421;28;20222;-62
2024/04/04 03:06:02;;;;;;;3.50;3.20;;;10.40;99.90;;;;;;5029137;28;20638;-61
2024/04/04 03:08:28;;;;;;;3.50;3.13;;;10.30;99.90;;;;;;5029133;28;20589;-61
2024/04/04 03:10:54;;;;;;;3.07;2.77;;;10.30;99.90;;;;;;5029380;28;20508;-62
2024/04/04 03:13:19;;;;;;;2.70;2.50;;;10.40;99.90;;;;;;5030081;28;20200;-57
2024/04/04 03:15:58;;;;;;;3.17;2.93;;;10.40;99.90;;;;;;5029491;28;20183;-57
2024/04/04 03:18:24;;;;;;;3.50;3.07;;;10.30;99.90;;;;;;5029473;28;20183;-58
2024/04/04 03:20:50;;;;;;;3.37;3.07;;;10.30;99.90;;;;;;5029409;28;20434;-57
2024/04/04 03:23:16;;;;;;;3.60;3.17;;;10.30;99.90;;;;;;5028977;28;20918;-56
2024/04/04 03:25:41;;;;;;;3.83;3.53;;;10.30;99.90;;;;;;5037634;28;20531;-54
2024/04/04 03:28:07;;;;;;;3.50;3.20;;;10.20;99.90;;;;;;5028897;28;20423;-58
2024/04/04 03:30:33;;;;;;;3.80;3.50;;;10.20;99.90;;;;;;5039109;28;20625;-53
2024/04/04 03:32:58;;;;;;;3.70;3.40;;;10.10;99.90;;;;;;5042021;28;20199;-55
2024/04/04 03:35:25;;;;;;;3.40;3.10;;;10.00;99.90;;;;;;5033685;28;20234;-54
2024/04/04 03:37:51;;;;;;;5.10;3.10;;;10.00;99.90;;;;;;5033247;28;20194;-58
2024/04/04 03:40:17;;;;;;;3.83;3.53;;;9.90;99.90;;;;;;5033655;28;20913;-58
2024/04/04 03:42:42;;;;;;;4.10;3.63;;;9.90;99.90;;;;;;5032852;28;20220;-55
2024/04/04 03:45:08;;;;;;;3.87;3.50;;;9.80;99.90;;;;;;5032866;28;20175;-56
2024/04/04 03:47:34;;;;;;;4.03;3.63;;;9.80;99.90;;;;;;5032626;28;20184;-56
2024/04/04 03:50:02;;;;;;;3.97;3.67;;;9.80;99.90;;;;;;5033097;28;20230;-59
2024/04/04 03:52:29;;;;;;;5.13;4.07;;;9.80;99.90;;;;;;5032821;28;20851;-56
2024/04/04 03:54:54;;;;;;;4.43;3.13;;;9.80;99.90;;;;;;5034696;28;20459;-52
2024/04/04 03:57:20;;;;;;;4.00;3.70;;;9.80;99.90;;;;;;5044345;28;20842;-56
2024/04/04 03:59:46;;;;;;;6.77;3.60;;;9.70;99.90;;;;;;5035135;28;20187;-55
2024/04/04 04:02:12;;;;;;;4.50;4.20;;;9.70;99.90;;;;;;5032568;28;20829;-59
2024/04/04 04:04:37;;;;;;;5.40;3.80;;;9.70;99.90;;;;;;5032494;28;20190;-57
2024/04/04 04:07:03;;;;;;;4.20;3.70;;;9.60;99.90;;;;;;5040360;28;20250;-55
2024/04/04 04:09:29;;;;;;;4.40;3.90;;;9.60;99.90;;;;;;5032522;28;20176;-56
2024/04/04 04:11:54;;;;;;;4.17;3.30;;;9.60;99.90;;;;;;5032152;28;20766;-57
2024/04/04 04:14:20;;;;;;;5.07;4.53;;;9.60;99.90;;;;;;5032297;28;20652;-55
2024/04/04 04:16:45;;;;;;;5.07;4.60;;;9.60;99.90;;;;;;5033911;28;20222;-57
2024/04/04 04:19:13;;;;;;;4.73;4.33;;;9.60;99.90;;;;;;5041680;28;20249;-57
2024/04/04 04:21:39;;;;;;;4.13;3.73;;;9.60;99.90;;;;;;5032090;28;20211;-55
2024/04/04 04:24:04;;;;;;;4.60;4.20;;;9.70;99.90;;;;;;5031673;28;20460;-55
2024/04/04 04:26:33;;;;;;;5.10;4.23;;;9.70;99.90;;;;;;5032039;28;20203;-56
2024/04/04 04:28:59;;;;;;;4.40;4.00;;;9.70;99.90;;;;;;5031738;28;20179;-56
2024/04/04 04:31:27;;;;;;;4.77;4.13;;;9.70;99.90;;;;;;5040436;28;20843;-55
2024/04/04 04:33:54;;;;;;;5.63;4.73;;;9.80;99.90;;;;;;5031557;28;20556;-58
2024/04/04 04:36:22;;;;;;;7.90;4.60;;;9.80;99.90;;;;;;5032023;28;20500;-56
2024/04/04 04:38:47;;;;;;;4.67;4.03;;;9.80;99.90;;;;;;5031550;28;20453;-58
2024/04/04 04:41:13;;;;;;;5.37;4.70;;;9.90;99.90;;;;;;5030762;28;20426;-54
2024/04/04 04:43:42;;;;;;;4.57;4.13;;;9.90;99.90;;;;;;5031666;28;20199;-54
2024/04/04 04:46:08;;;;;;;3.97;3.50;;;10.00;99.90;;;;;;5031967;28;20197;-57
2024/04/04 04:48:34;;;;;;;4.90;3.43;;;10.00;99.90;;;;;;5031735;28;20845;-56
2024/04/04 04:51:00;;;;;;;3.67;3.37;;;10.00;99.90;;;;;;5031629;28;20426;-56
2024/04/04 04:53:25;;;;;;;6.87;3.40;;;10.00;99.90;;;;;;5031614;28;20286;-56
2024/04/04 04:55:51;;;;;;;4.60;3.70;;;10.10;99.90;;;;;;5031248;28;20198;-56
2024/04/04 04:58:20;;;;;;;3.80;3.50;;;10.10;99.90;;;;;;5031457;28;20618;-59
2024/04/04 05:00:46;;;;;;;3.70;3.40;;;10.10;99.90;;;;;;5031629;28;20188;-58
2024/04/04 05:03:14;;;;;;;4.70;3.47;;;10.20;99.90;;;;;;5031572;28;20473;-57
2024/04/04 05:05:40;;;;;;;3.53;3.20;;;10.20;99.90;;;;;;5031605;28;20567;-57
2024/04/04 05:08:06;;;;;;;4.67;3.33;;;10.10;99.90;;;;;;5031380;28;20430;-56
2024/04/04 05:10:31;;;;;;;3.73;3.40;;;10.10;99.90;;;;;;5031711;28;20418;-54
2024/04/04 05:12:57;;;;;;;4.07;3.70;;;10.20;99.90;;;;;;5031088;28;20801;-57
2024/04/04 05:15:22;;;;;;;5.77;2.90;;;10.20;99.90;;;;;;5031920;28;20183;-58
2024/04/04 05:17:48;;;;;;;3.87;3.57;;;10.20;99.90;;;;;;5030876;28;20619;-58
2024/04/04 05:20:14;;;;;;;5.37;2.90;;;10.20;99.90;;;;;;5031118;28;20442;-58
2024/04/04 05:22:43;;;;;;;3.37;3.07;;;10.30;99.90;;;;;;5030929;28;20219;-57
2024/04/04 05:25:14;;;;;;;2.63;2.33;;;10.40;99.90;;;;;;5031152;28;20180;-59
2024/04/04 05:27:40;;;;;;;4.50;3.30;;;10.40;99.90;;;;;;5031430;28;20488;-53
2024/04/04 05:30:13;;;;;;;4.10;3.40;;;10.50;99.90;;;;;;5031277;28;20513;-56
2024/04/04 05:32:40;;;;;;;4.97;2.77;;;10.50;99.90;;;;;;5031242;28;20830;-57
2024/04/04 05:35:06;;;;;;;5.53;3.63;;;10.50;99.90;;;;;;5031017;28;20431;-59
2024/04/04 05:37:32;;;;;;;3.40;2.47;;;10.50;99.90;;;;;;5030708;28;20422;-57
2024/04/04 05:39:58;;;;;;;2.80;2.50;;;10.50;99.90;;;;;;5029205;28;20907;-58
2024/04/04 05:42:24;;;;;;;4.63;2.77;;;10.60;99.90;;;;;;5030771;28;20499;-56
2024/04/04 05:44:50;;;;;;;7.43;3.13;;;10.50;99.90;;;;;;5030520;28;20214;-55
2024/04/04 05:47:15;;;;;;;4.33;2.60;;;10.60;99.90;;;;;;5030719;28;20461;-56
2024/04/04 05:49:41;;;;;;;3.70;3.03;;;10.60;99.90;;;;;;5030916;28;20863;-60
2024/04/04 05:52:06;;;;;;;3.60;2.33;;;10.60;99.90;;;;;;5030158;28;20184;-57
2024/04/04 05:54:32;;;;;;;2.60;2.30;;;10.60;99.90;;;;;;5030481;28;20183;-58
2024/04/04 05:56:57;;;;;;;3.40;2.50;;;10.60;99.90;;;;;;5032794;28;20183;-55
2024/04/04 05:59:23;;;;;;;2.90;2.47;;;10.60;99.90;;;;;;5030906;28;20191;-58
2024/04/04 06:01:49;;;;;;;5.47;2.47;;;10.60;99.90;;;;;;5030653;28;20693;-56
2024/04/04 06:04:14;;;;;;;3.30;2.47;;;10.80;99.90;;;;;;5034859;28;20240;-54
2024/04/04 06:06:41;;;;;;;2.97;2.50;;;10.80;99.90;;;;;;5030485;28;20175;-57
2024/04/04 06:09:07;;;;;;;3.13;2.77;;;10.90;99.90;;;;;;5030188;28;20187;-57
2024/04/04 06:11:32;;;;;;;2.70;2.50;;;11.10;99.90;;;;;;5029984;28;20421;-55
2024/04/04 06:13:58;;;;;;;6.50;2.80;;;11.20;99.90;;;;;;5029581;28;20202;-56
2024/04/04 06:16:23;;;;;;;3.40;2.10;;;11.30;99.90;;;;;;5030261;28;20195;-59
2024/04/04 06:18:49;;;;;;;3.83;2.93;;;11.40;99.90;;;;;;5029658;28;20171;-53
2024/04/04 06:21:15;;;;;;;4.87;2.30;;;11.50;99.90;;;;;;5024920;28;20195;-53
2024/04/04 06:23:40;;;;;;;2.83;2.50;;;12.00;99.90;;;;;;5029489;28;20249;-56
2024/04/04 06:26:06;;;;;;;5.63;2.30;;;12.20;99.90;;;;;;5029527;28;20188;-60
2024/04/04 06:28:31;;;;;;;2.27;1.90;;;12.80;99.90;;;;;;5029978;28;20169;-58
2024/04/04 06:30:57;;;;;;;3.77;2.27;;;12.80;99.90;;;;;;5030590;28;20278;-57
2024/04/04 06:33:22;;;;;;;5.53;2.30;;;12.80;99.90;;;;;;5033659;28;20547;-55
2024/04/04 06:35:48;;;;;;;2.97;1.73;;;13.10;99.90;;;;;;5012179;28;20235;-54
2024/04/04 06:38:14;;;;;;;3.17;1.90;;;12.90;99.90;;;;;;5029462;28;20182;-62
2024/04/04 06:40:39;;;;;;;2.70;1.83;;;13.10;99.90;;;;;;5029926;28;20268;-60
2024/04/04 06:43:05;;;;;;;3.20;1.73;;;13.70;99.90;;;;;;5029270;28;20220;-61
2024/04/04 06:45:31;;;;;;;2.67;1.40;;;13.60;99.90;;;;;;5029651;28;20180;-55
2024/04/04 06:47:57;;;;;;;3.80;1.83;;;14.00;99.90;;;;;;5029216;28;20618;-60
2024/04/04 06:50:27;;;;;;;3.10;2.07;;;14.70;99.90;;;;;;5027390;28;20211;-59
2024/04/04 06:52:54;;;;;;;1.97;1.60;;;15.30;99.90;;;;;;5029668;28;20851;-57
2024/04/04 06:55:19;;;;;;;2.53;2.07;;;15.10;99.90;;;;;;5029883;28;20432;-58
2024/04/04 06:57:45;;;;;;;3.93;2.30;;;14.40;99.90;;;;;;5030190;28;20905;-53
2024/04/04 07:00:11;;;;;;;2.00;1.70;;;14.50;99.90;;;;;;5029394;28;20187;-57
2024/04/04 07:02:38;;;;;;;4.30;1.53;;;15.40;99.90;;;;;;5029476;28;20473;-55
2024/04/04 07:05:06;;;;;;;3.63;2.03;;;15.50;99.90;;;;;;5028741;28;20834;-58
2024/04/04 07:07:32;;;;;;;3.60;2.93;;;15.70;99.90;;;;;;5029370;28;20413;-61
2024/04/04 07:09:57;;;;;;;2.27;1.70;;;15.60;99.90;;;;;;5029690;28;20450;-59
2024/04/04 07:12:23;;;;;;;2.63;1.80;;;15.80;99.90;;;;;;5029594;28;20486;-57
2024/04/04 07:14:48;;;;;;;3.13;1.20;;;15.60;99.90;;;;;;5029594;28;20176;-59
2024/04/04 07:17:14;;;;;;;2.83;1.60;;;16.80;99.90;;;;;;5029796;28;20241;-55
2024/04/04 07:19:40;;;;;;;2.53;1.60;;;15.90;99.90;;;;;;5029524;28;20188;-54
2024/04/04 07:22:05;;;;;;;2.00;1.80;;;15.90;99.90;;;;;;5028770;28;20232;-59
2024/04/04 07:24:31;;;;;;;1.50;1.10;;;16.30;99.90;;;;;;5029232;28;20181;-58
2024/04/04 07:26:57;;;;;;;2.90;1.57;;;16.90;99.90;;;;;;5028831;28;20272;-58
2024/04/04 07:29:22;;;;;;;2.40;1.20;;;16.10;99.90;;;;;;5029208;28;20938;-55
2024/04/04 07:31:49;;;;;;;7.20;1.67;;;16.10;99.90;;;;;;5029104;28;20646;-56
2024/04/04 07:34:15;;;;;;;2.87;1.47;;;16.80;99.90;;;;;;5028764;28;20203;-58
2024/04/04 07:36:41;;;;;;;3.00;1.90;;;16.40;99.90;;;;;;5029032;28;20432;-57
2024/04/04 07:39:09;;;;;;;7.30;1.40;;;16.60;99.90;;;;;;5049184;22;20585;-57
2024/04/04 07:41:37;;;;;;;1.63;1.50;;;16.70;99.90;;;;;;5031094;28;20464;-59
2024/04/04 07:44:03;;;;;;;1.30;1.20;;;16.20;99.90;;;;;;5032096;28;20469;-55
2024/04/04 07:46:29;;;;;;;1.70;1.40;;;16.70;99.90;;;;;;5031366;28;21124;-58
2024/04/04 07:48:56;;;;;;;2.37;1.23;;;16.40;99.90;;;;;;5030819;28;20182;-60
2024/04/04 07:51:23;;;;;;;2.13;1.50;;;16.60;99.90;;;;;;5031296;28;20437;-56
2024/04/04 07:53:49;;;;;;;4.43;1.60;;;16.60;99.90;;;;;;5031166;28;20458;-53
2024/04/04 07:56:16;;;;;;;1.50;1.30;;;17.10;99.90;;;;;;5030306;28;20543;-57
2024/04/04 07:58:44;;;;;;;1.20;1.10;;;16.90;99.90;;;;;;5025506;28;20447;-58
2024/04/04 08:01:11;;;;;;;4.83;1.30;;;16.90;99.90;;;;;;5030881;28;20476;-59
2024/04/04 08:03:37;;;;;;;2.40;1.50;;;17.10;99.90;;;;;;5031288;28;20897;-56
2024/04/04 08:06:03;;;;;;;3.60;1.57;;;17.00;99.90;;;;;;5031046;28;20511;-56
2024/04/04 08:08:28;;;;;;;2.40;1.37;;;17.00;99.90;;;;;;5031103;28;20168;-58
2024/04/04 08:10:55;;;;;;;2.00;1.37;;;17.70;99.90;;;;;;5030938;28;20438;-58
2024/04/04 08:13:21;;;;;;;2.47;1.50;;;17.10;99.90;;;;;;5031538;28;20653;-58
2024/04/04 08:15:50;;;;;;;3.20;1.60;;;17.50;99.90;;;;;;5032504;28;20425;-57
2024/04/04 08:18:16;;;;;;;2.07;1.30;;;17.40;99.90;;;;;;5034808;28;20190;-57
2024/04/04 08:20:45;;;;;;;4.50;1.27;;;18.00;99.90;;;;;;5034654;28;20513;-56
2024/04/04 08:23:11;;;;;;;3.77;1.23;;;19.00;99.90;;;;;;5034404;28;20198;-59
2024/04/04 08:25:37;;;;;;;3.63;1.27;;;18.40;99.90;;;;;;5034817;28;20812;-57
2024/04/04 08:28:04;;;;;;;4.13;1.30;;;18.10;99.90;;;;;;5034410;28;20250;-57
2024/04/04 08:30:30;;;;;;;1.60;1.00;;;18.20;99.90;;;;;;5034529;28;20765;-56
2024/04/04 08:32:56;;;;;;;3.37;1.10;;;18.40;99.90;;;;;;5034541;28;20504;-58
2024/04/04 08:35:22;;;;;;;2.10;0.90;;;17.50;99.90;;;;;;5026431;28;20509;-57
2024/04/04 08:37:48;;;;;;;2.40;1.10;;;18.00;99.90;;;;;;5034438;28;20171;-57
2024/04/04 08:40:14;;;;;;;1.50;1.07;;;18.00;99.90;;;;;;5033978;28;20531;-57
2024/04/04 08:42:41;;;;;;;3.00;0.93;;;17.50;99.90;;;;;;5034475;28;20462;-57
2024/04/04 08:45:09;;;;;;;6.67;1.43;;;17.40;99.90;;;;;;5034359;28;20778;-57
2024/04/04 08:47:36;;;;;;;2.30;1.50;;;18.30;99.90;;;;;;5034250;28;20468;-53
2024/04/04 08:50:03;;;;;;;1.20;1.10;;;17.90;99.90;;;;;;5025749;28;20490;-55
2024/04/04 08:52:30;;;;;;;5.93;3.00;;;17.60;99.90;;;;;;5033961;28;20424;-55
2024/04/04 08:54:56;;;;;;;4.07;2.73;;;17.20;99.90;;;;;;5034314;28;21001;-54
2024/04/04 08:57:23;;;;;;;5.47;2.20;;;16.90;99.90;;;;;;5029763;28;20564;-55
2024/04/04 08:59:59;;;;;;;4.63;2.10;;;16.80;99.90;;;;;;5034153;28;20674;-59
2024/04/04 09:02:26;;;;;;;5.00;2.40;;;17.10;99.90;;;;;;5034129;28;20485;-57
2024/04/04 09:05:08;;;;;;;2.80;1.60;;;17.40;99.90;;;;;;5033847;28;20410;-57
2024/04/04 09:07:35;;;;;;;2.77;1.63;;;17.90;99.90;;;;;;5033709;28;20409;-54
2024/04/04 09:10:05;;;;;;;1.83;1.40;;;17.80;99.90;;;;;;5033602;28;20463;-56
2024/04/04 09:12:31;;;;;;;4.23;2.40;;;17.70;99.90;;;;;;5033659;28;20917;-57
2024/04/04 09:14:57;;;;;;;5.27;1.13;;;17.30;99.90;;;;;;5033692;28;20430;-57
2024/04/04 09:17:23;;;;;;;4.80;1.67;;;17.90;99.90;;;;;;5033370;28;20175;-54
2024/04/04 09:19:56;;;;;;;2.33;1.20;;;17.80;99.90;;;;;;5033543;28;20494;-58
2024/04/04 09:22:23;;;;;;;2.53;1.20;;;18.40;99.90;;;;;;5033381;28;20600;-57
2024/04/04 09:24:49;;;;;;;1.43;1.10;;;18.70;99.90;;;;;;5033694;28;20410;-57
2024/04/04 09:27:18;;;;;;;2.80;1.10;;;18.50;99.90;;;;;;5030811;28;20428;-57
2024/04/04 09:29:46;;;;;;;2.80;1.50;;;17.80;99.90;;;;;;5027956;28;20532;-57
2024/04/04 09:32:13;;;;;;;3.23;1.00;;;17.50;99.90;;;;;;5033459;28;20979;-57
2024/04/04 09:34:42;;;;;;;1.33;0.93;;;17.70;99.90;;;;;;5026983;28;20460;-55
2024/04/04 09:37:14;;;;;;;3.00;0.90;;;17.80;99.90;;;;;;5033504;28;20446;-57
2024/04/04 09:39:43;;;;;;;3.90;1.30;;;18.10;99.90;;;;;;5033287;28;20499;-57
2024/04/04 09:42:09;;;;;;;3.43;1.00;;;17.90;99.90;;;;;;5033287;28;20881;-54
2024/04/04 09:44:38;;;;;;;3.47;1.20;;;17.20;99.90;;;;;;5033127;28;20407;-55
2024/04/04 09:47:04;;;;;;;3.47;1.20;;;17.80;99.90;;;;;;5032920;28;20457;-57
2024/04/04 09:49:32;;;;;;;2.37;1.10;;;17.70;99.90;;;;;;5033253;28;20525;-58
2024/04/04 09:52:01;;;;;;;2.80;1.07;;;17.70;99.90;;;;;;5032976;28;20438;-58
2024/04/04 09:54:28;;;;;;;1.50;1.00;;;17.50;99.90;;;;;;5033020;28;20491;-57
2024/04/04 09:56:55;;;;;;;1.23;1.07;;;17.60;99.90;;;;;;5029508;28;21031;-58
2024/04/04 09:59:28;;;;;;;5.03;1.10;;;16.80;99.90;;;;;;5032093;28;20451;-58
2024/04/04 10:02:04;;;;;;;1.93;1.40;;;16.40;99.90;;;;;;5023667;28;20836;-56
2024/04/04 10:04:35;;;;;;;3.63;0.90;;;16.30;99.90;;;;;;5013438;28;20475;-58
2024/04/04 10:07:01;;;;;;;6.97;1.40;;;16.40;99.90;;;;;;5003665;28;20419;-56
2024/04/04 10:09:37;;;;;;;6.47;1.30;;;16.60;99.90;;;;;;5019680;28;20455;-57
2024/04/04 10:12:10;;;;;;;1.33;1.10;;;16.40;99.90;;;;;;5025026;28;20768;-59
2024/04/04 10:14:36;;;;;;;1.27;0.87;;;15.80;99.90;;;;;;5024604;28;20802;-57
2024/04/04 10:17:06;;;;;;;3.03;1.27;;;15.50;99.90;;;;;;5032533;28;20836;-58
2024/04/04 10:19:34;;;;;;;1.83;1.13;;;15.40;99.90;;;;;;5000159;28;20453;-51
2024/04/04 10:22:02;;;;;;;1.50;1.40;;;15.50;99.90;;;;;;5020142;28;20910;-54
2024/04/04 10:24:32;;;;;;;1.20;0.80;;;15.60;99.90;;;;;;5032184;28;20935;-57
2024/04/04 10:27:07;;;;;;;3.53;0.97;;;15.40;99.90;;;;;;5032288;28;20412;-55
2024/04/04 10:29:38;;;;;;;1.40;1.17;;;15.40;99.90;;;;;;5017421;28;20800;-58
2024/04/04 10:32:05;;;;;;;1.47;1.07;;;15.50;99.90;;;;;;5022256;28;20752;-59
2024/04/04 10:34:32;;;;;;;2.33;1.20;;;15.70;99.90;;;;;;5025188;28;20524;-56
2024/04/04 10:36:58;;;;;;;5.60;1.53;;;15.90;99.90;;;;;;5008919;28;20487;-55
2024/04/04 10:39:23;;;;;;;1.63;1.20;;;15.60;99.90;;;;;;5030965;28;21758;-55
2024/04/04 10:41:51;;;;;;;2.93;1.07;;;15.50;99.90;;;;;;5032190;28;20195;-58
2024/04/04 10:44:19;;;;;;;3.03;1.30;;;15.60;99.90;;;;;;5032034;28;20256;-55
2024/04/04 10:46:49;;;;;;;2.83;1.10;;;15.60;99.90;;;;;;5032055;28;20409;-56
2024/04/04 10:49:17;;;;;;;2.30;1.50;;;15.60;99.90;;;;;;5031688;28;20439;-57
2024/04/04 10:51:49;;;;;;;3.53;1.47;;;15.50;99.90;;;;;;5031977;28;20424;-56
2024/04/04 10:54:16;;;;;;;3.37;1.03;;;15.20;99.90;;;;;;5025206;28;20975;-58
2024/04/04 10:56:42;;;;;;;2.70;1.07;;;14.90;99.90;;;;;;5018709;28;20419;-56
2024/04/04 10:59:09;;;;;;;1.60;1.30;;;14.90;99.90;;;;;;5028460;28;20973;-56
2024/04/04 11:01:35;;;;;;;1.27;1.00;;;14.60;99.90;;;;;;5031766;28;20262;-53
2024/04/04 11:04:00;;;;;;;2.93;1.37;;;14.60;99.90;;;;;;5031708;28;20535;-56
2024/04/04 11:06:27;;;;;;;9.70;1.50;;;14.60;99.90;;;;;;5031670;28;20178;-58
2024/04/04 11:08:54;;;;;;;7.00;1.60;;;14.30;99.90;;;;;;5023706;28;20177;-63
2024/04/04 11:11:22;;;;;;;1.60;1.33;;;14.20;99.90;;;;;;5024853;28;20420;-57
2024/04/04 11:13:49;;;;;;;4.13;1.30;;;14.10;99.90;;;;;;5031790;28;20903;-57
2024/04/04 11:16:16;;;;;;;3.47;1.60;;;14.00;99.90;;;;;;5023522;28;20463;-56
2024/04/04 11:18:43;;;;;;;2.67;1.60;;;13.80;99.90;;;;;;5031434;28;20418;-58
2024/04/04 11:21:09;;;;;;;3.30;1.40;;;13.70;99.90;;;;;;5031178;28;20525;-58
2024/04/04 11:23:35;;;;;;;1.77;1.60;;;13.40;99.90;;;;;;5023457;28;20958;-58
2024/04/04 11:26:01;;;;;;;2.33;1.70;;;13.40;99.90;;;;;;5031538;28;20406;-56
2024/04/04 11:28:27;;;;;;;2.97;1.80;;;13.50;99.90;;;;;;5024244;28;20414;-56
2024/04/04 11:30:53;;;;;;;2.93;1.50;;;13.40;99.90;;;;;;5031731;28;20187;-56
2024/04/04 11:33:19;;;;;;;3.30;1.90;;;13.40;99.90;;;;;;5030710;28;20239;-54
2024/04/04 11:35:45;;;;;;;5.70;1.97;;;13.30;99.90;;;;;;5024888;28;20450;-56
2024/04/04 11:38:11;;;;;;;2.70;1.47;;;13.30;99.90;;;;;;5031414;28;20175;-53
2024/04/04 11:40:37;;;;;;;3.73;1.83;;;13.30;99.90;;;;;;5023330;28;20454;-56
2024/04/04 11:43:04;;;;;;;2.03;1.40;;;13.30;99.90;;;;;;5031314;28;20805;-54
2024/04/04 11:45:32;;;;;;;1.60;1.50;;;13.10;99.90;;;;;;5024076;28;20176;-56
2024/04/04 11:47:58;;;;;;;6.87;2.53;;;13.20;99.90;;;;;;5031346;28;20419;-59
2024/04/04 11:50:24;;;;;;;2.37;1.90;;;13.30;99.90;;;;;;5031871;28;20434;-57
2024/04/04 11:52:49;;;;;;;3.23;1.67;;;13.30;99.90;;;;;;5030018;28;20204;-58
2024/04/04 11:55:15;;;;;;;3.17;1.67;;;13.40;99.90;;;;;;5032939;28;20221;-56
2024/04/04 11:57:40;;;;;;;2.90;1.73;;;13.50;99.90;;;;;;5029076;28;20164;-55
2024/04/04 12:00:11;;;;;;;27.40;15.17;;;13.60;99.90;;;;;;5035021;28;20184;-55
2024/04/04 12:02:37;;;;;;;4.43;2.40;;;13.60;99.90;;;;;;5026759;28;20591;-56
2024/04/04 12:05:04;;;;;;;1.83;1.13;;;13.90;99.90;;;;;;5010565;28;20407;-57
2024/04/04 12:07:29;;;;;;;2.90;2.50;;;14.10;99.90;;;;;;5026221;28;20444;-58
2024/04/04 12:09:55;;;;;;;2.07;1.43;;;14.30;99.90;;;;;;5027084;28;20906;-59
2024/04/04 12:12:21;;;;;;;3.40;1.50;;;14.10;99.90;;;;;;5026812;28;20180;-57
2024/04/04 12:14:47;;;;;;;2.43;2.27;;;14.10;99.90;;;;;;5033518;28;20635;-56
2024/04/04 12:17:16;;;;;;;3.23;1.70;;;14.00;99.90;;;;;;5031616;28;20418;-56
2024/04/04 12:19:42;;;;;;;3.17;2.00;;;13.80;99.90;;;;;;5027449;28;20200;-56
2024/04/04 12:22:08;;;;;;;4.00;2.20;;;13.80;99.90;;;;;;5035079;28;20859;-53
2024/04/04 12:24:34;;;;;;;3.07;2.53;;;13.70;99.90;;;;;;5035021;28;20464;-57
2024/04/04 12:27:00;;;;;;;4.73;2.13;;;13.60;99.90;;;;;;5002270;28;20223;-55
2024/04/04 12:29:25;;;;;;;5.13;2.40;;;13.60;99.90;;;;;;5008980;28;20527;-55
2024/04/04 12:31:52;;;;;;;2.57;1.67;;;13.60;99.90;;;;;;5035190;28;20183;-56
2024/04/04 12:34:17;;;;;;;2.00;1.80;;;13.60;99.90;;;;;;5025540;28;20225;-52
2024/04/04 12:36:43;;;;;;;2.80;1.80;;;13.50;99.90;;;;;;5027050;28;20410;-55
2024/04/04 12:39:12;;;;;;;3.00;2.80;;;13.60;99.90;;;;;;5016897;28;20175;-53
2024/04/04 12:41:38;;;;;;;3.87;2.30;;;13.50;99.90;;;;;;5017501;28;20646;-56
2024/04/04 12:44:03;;;;;;;2.50;2.30;;;13.50;99.90;;;;;;5034538;28;20473;-55